sensor_id;sensor_type;location;lat;lon;timestamp;pressure;altitude;pressure_sealevel;temperature
64790;BMP280;51223;51.816;5.862;2022-08-03T00:00:47;101514.38;;;28.18
64790;BMP280;51223;51.816;5.862;2022-08-03T00:03:28;101515.97;;;28.38
64790;BMP280;51223;51.816;5.862;2022-08-03T00:06:11;101511.66;;;28.07
64790;BMP280;51223;51.816;5.862;2022-08-03T00:09:08;101517.88;;;27.93
64790;BMP280;51223;51.816;5.862;2022-08-03T00:11:40;101524.84;;;27.60
64790;BMP280;51223;51.816;5.862;2022-08-03T00:14:09;101522.22;;;27.80
64790;BMP280;51223;51.816;5.862;2022-08-03T00:22:38;101522.91;;;27.68
64790;BMP280;51223;51.816;5.862;2022-08-03T00:25:16;101520.75;;;27.74
64790;BMP280;51223;51.816;5.862;2022-08-03T00:28:04;101523.00;;;27.81
64790;BMP280;51223;51.816;5.862;2022-08-03T00:30:53;101514.13;;;27.79
64790;BMP280;51223;51.816;5.862;2022-08-03T00:33:32;101516.78;;;27.77
64790;BMP280;51223;51.816;5.862;2022-08-03T00:36:06;101520.03;;;27.44
64790;BMP280;51223;51.816;5.862;2022-08-03T00:38:47;101524.72;;;27.22
64790;BMP280;51223;51.816;5.862;2022-08-03T00:41:28;101515.59;;;27.18
64790;BMP280;51223;51.816;5.862;2022-08-03T00:44:03;101516.19;;;27.36
64790;BMP280;51223;51.816;5.862;2022-08-03T00:46:51;101516.84;;;27.47
64790;BMP280;51223;51.816;5.862;2022-08-03T00:49:29;101513.53;;;27.62
64790;BMP280;51223;51.816;5.862;2022-08-03T00:51:55;101504.78;;;27.49
64790;BMP280;51223;51.816;5.862;2022-08-03T00:54:59;101506.91;;;27.24
64790;BMP280;51223;51.816;5.862;2022-08-03T00:57:57;101517.69;;;26.88
64790;BMP280;51223;51.816;5.862;2022-08-03T01:00:37;101508.59;;;27.08
64790;BMP280;51223;51.816;5.862;2022-08-03T01:03:48;101508.13;;;27.04
64790;BMP280;51223;51.816;5.862;2022-08-03T01:17:57;101491.16;;;27.25
64790;BMP280;51223;51.816;5.862;2022-08-03T01:20:26;101496.34;;;27.02
64790;BMP280;51223;51.816;5.862;2022-08-03T01:26:12;101497.84;;;27.14
64790;BMP280;51223;51.816;5.862;2022-08-03T01:31:42;101495.19;;;26.51
64790;BMP280;51223;51.816;5.862;2022-08-03T01:34:16;101501.41;;;26.61
64790;BMP280;51223;51.816;5.862;2022-08-03T01:36:48;101497.94;;;26.33
64790;BMP280;51223;51.816;5.862;2022-08-03T01:39:19;101497.34;;;26.45
64790;BMP280;51223;51.816;5.862;2022-08-03T01:41:57;101494.22;;;26.43
64790;BMP280;51223;51.816;5.862;2022-08-03T01:44:45;101487.00;;;26.25
64790;BMP280;51223;51.816;5.862;2022-08-03T01:48:03;101497.50;;;26.58
64790;BMP280;51223;51.816;5.862;2022-08-03T01:54:08;101482.44;;;26.47
64790;BMP280;51223;51.816;5.862;2022-08-03T01:57:05;101492.94;;;26.74
64790;BMP280;51223;51.816;5.862;2022-08-03T02:00:03;101483.06;;;26.64
64790;BMP280;51223;51.816;5.862;2022-08-03T02:02:37;101486.84;;;26.53
64790;BMP280;51223;51.816;5.862;2022-08-03T02:05:27;101476.84;;;26.60
64790;BMP280;51223;51.816;5.862;2022-08-03T02:08:19;101478.16;;;26.59
64790;BMP280;51223;51.816;5.862;2022-08-03T02:11:01;101481.94;;;26.43
64790;BMP280;51223;51.816;5.862;2022-08-03T02:13:39;101470.03;;;26.22
64790;BMP280;51223;51.816;5.862;2022-08-03T02:16:06;101470.47;;;26.31
64790;BMP280;51223;51.816;5.862;2022-08-03T02:18:57;101470.47;;;26.31
64790;BMP280;51223;51.816;5.862;2022-08-03T02:21:36;101473.06;;;25.89
64790;BMP280;51223;51.816;5.862;2022-08-03T02:24:18;101475.22;;;26.29
64790;BMP280;51223;51.816;5.862;2022-08-03T02:27:16;101477.06;;;26.62
64790;BMP280;51223;51.816;5.862;2022-08-03T02:33:57;101476.31;;;26.20
64790;BMP280;51223;51.816;5.862;2022-08-03T02:39:43;101461.84;;;26.31
64790;BMP280;51223;51.816;5.862;2022-08-03T02:42:11;101465.03;;;26.34
64790;BMP280;51223;51.816;5.862;2022-08-03T02:45:09;101465.88;;;26.17
64790;BMP280;51223;51.816;5.862;2022-08-03T02:47:48;101463.53;;;26.16
64790;BMP280;51223;51.816;5.862;2022-08-03T02:50:33;101469.22;;;26.27
64790;BMP280;51223;51.816;5.862;2022-08-03T02:53:19;101462.19;;;26.22
64790;BMP280;51223;51.816;5.862;2022-08-03T02:55:55;101458.22;;;26.25
64790;BMP280;51223;51.816;5.862;2022-08-03T03:10:20;101458.78;;;26.24
64790;BMP280;51223;51.816;5.862;2022-08-03T03:13:01;101455.88;;;26.29
64790;BMP280;51223;51.816;5.862;2022-08-03T03:17:56;101462.44;;;26.24
64790;BMP280;51223;51.816;5.862;2022-08-03T03:20:24;101464.72;;;26.31
64790;BMP280;51223;51.816;5.862;2022-08-03T03:22:50;101451.75;;;26.19
64790;BMP280;51223;51.816;5.862;2022-08-03T03:25:17;101460.31;;;26.25
64790;BMP280;51223;51.816;5.862;2022-08-03T03:27:44;101453.56;;;26.22
64790;BMP280;51223;51.816;5.862;2022-08-03T03:30:11;101451.53;;;26.12
64790;BMP280;51223;51.816;5.862;2022-08-03T03:32:49;101451.25;;;26.15
64790;BMP280;51223;51.816;5.862;2022-08-03T03:35:25;101451.75;;;26.19
64790;BMP280;51223;51.816;5.862;2022-08-03T03:38:25;101451.75;;;26.19
64790;BMP280;51223;51.816;5.862;2022-08-03T03:41:03;101457.72;;;26.21
64790;BMP280;51223;51.816;5.862;2022-08-03T03:43:30;101458.28;;;26.20
64790;BMP280;51223;51.816;5.862;2022-08-03T03:45:57;101456.53;;;26.11
64790;BMP280;51223;51.816;5.862;2022-08-03T03:54:52;101439.09;;;25.98
64790;BMP280;51223;51.816;5.862;2022-08-03T03:57:50;101443.78;;;26.01
64790;BMP280;51223;51.816;5.862;2022-08-03T04:00:24;101445.38;;;25.91
64790;BMP280;51223;51.816;5.862;2022-08-03T04:02:50;101454.72;;;26.03
64790;BMP280;51223;51.816;5.862;2022-08-03T04:05:22;101451.38;;;25.93
64790;BMP280;51223;51.816;5.862;2022-08-03T04:08:22;101447.91;;;26.06
64790;BMP280;51223;51.816;5.862;2022-08-03T04:14:39;101458.41;;;25.92
64790;BMP280;51223;51.816;5.862;2022-08-03T04:20:46;101452.03;;;25.64
64790;BMP280;51223;51.816;5.862;2022-08-03T04:24:04;101456.69;;;25.78
64790;BMP280;51223;51.816;5.862;2022-08-03T04:26:33;101458.72;;;25.83
64790;BMP280;51223;51.816;5.862;2022-08-03T04:29:38;101467.59;;;25.85
64790;BMP280;51223;51.816;5.862;2022-08-03T04:32:39;101454.38;;;25.65
64790;BMP280;51223;51.816;5.862;2022-08-03T04:35:24;101454.66;;;25.62
64790;BMP280;51223;51.816;5.862;2022-08-03T04:38:24;101460.16;;;25.60
64790;BMP280;51223;51.816;5.862;2022-08-03T04:41:20;101460.66;;;25.64
64790;BMP280;51223;51.816;5.862;2022-08-03T04:44:05;101458.84;;;25.61
64790;BMP280;51223;51.816;5.862;2022-08-03T04:46:55;101458.78;;;25.72
64790;BMP280;51223;51.816;5.862;2022-08-03T04:49:47;101455.69;;;25.64
64790;BMP280;51223;51.816;5.862;2022-08-03T04:52:38;101466.88;;;25.73
64790;BMP280;51223;51.816;5.862;2022-08-03T04:55:38;101468.50;;;25.63
64790;BMP280;51223;51.816;5.862;2022-08-03T04:58:36;101460.25;;;25.15
64790;BMP280;51223;51.816;5.862;2022-08-03T05:01:11;101464.09;;;25.46
64790;BMP280;51223;51.816;5.862;2022-08-03T05:06:26;101472.38;;;25.66
64790;BMP280;51223;51.816;5.862;2022-08-03T05:09:01;101467.72;;;25.63
64790;BMP280;51223;51.816;5.862;2022-08-03T05:11:36;101480.91;;;25.94
64790;BMP280;51223;51.816;5.862;2022-08-03T05:14:02;101476.75;;;25.84
64790;BMP280;51223;51.816;5.862;2022-08-03T05:16:31;101480.69;;;25.80
64790;BMP280;51223;51.816;5.862;2022-08-03T05:18:57;101481.66;;;26.00
64790;BMP280;51223;51.816;5.862;2022-08-03T05:21:32;101484.31;;;25.98
64790;BMP280;51223;51.816;5.862;2022-08-03T05:26:42;101481.97;;;26.31
64790;BMP280;51223;51.816;5.862;2022-08-03T05:29:10;101493.72;;;26.39
64790;BMP280;51223;51.816;5.862;2022-08-03T05:31:36;101496.97;;;25.56
64790;BMP280;51223;51.816;5.862;2022-08-03T05:34:02;101495.06;;;26.33
64790;BMP280;51223;51.816;5.862;2022-08-03T05:36:28;101487.19;;;26.74
64790;BMP280;51223;51.816;5.862;2022-08-03T05:39:05;101490.22;;;26.87
64790;BMP280;51223;51.816;5.862;2022-08-03T05:41:49;101489.56;;;26.70
64790;BMP280;51223;51.816;5.862;2022-08-03T05:44:15;101496.69;;;26.93
64790;BMP280;51223;51.816;5.862;2022-08-03T05:46:46;101495.06;;;26.73
64790;BMP280;51223;51.816;5.862;2022-08-03T05:49:15;101491.88;;;27.07
64790;BMP280;51223;51.816;5.862;2022-08-03T05:52:13;101491.31;;;27.08
64790;BMP280;51223;51.816;5.862;2022-08-03T05:54:44;101499.22;;;27.02
64790;BMP280;51223;51.816;5.862;2022-08-03T05:57:10;101504.50;;;27.28
64790;BMP280;51223;51.816;5.862;2022-08-03T05:59:57;101495.25;;;27.35
64790;BMP280;51223;51.816;5.862;2022-08-03T06:02:29;101505.88;;;27.21
64790;BMP280;51223;51.816;5.862;2022-08-03T06:05:00;101507.41;;;27.47
64790;BMP280;51223;51.816;5.862;2022-08-03T06:08:00;101514.47;;;26.97
64790;BMP280;51223;51.816;5.862;2022-08-03T06:10:29;101505.28;;;27.28
64790;BMP280;51223;51.816;5.862;2022-08-03T06:13:01;101506.50;;;27.09
64790;BMP280;51223;51.816;5.862;2022-08-03T06:15:35;101506.53;;;27.57
64790;BMP280;51223;51.816;5.862;2022-08-03T06:18:35;101507.22;;;27.20
64790;BMP280;51223;51.816;5.862;2022-08-03T06:20:53;101511.44;;;27.62
64790;BMP280;51223;51.816;5.862;2022-08-03T06:23:19;101510.75;;;27.02
64790;BMP280;51223;51.816;5.862;2022-08-03T06:25:45;101515.19;;;27.03
64790;BMP280;51223;51.816;5.862;2022-08-03T06:28:35;101513.31;;;27.11
64790;BMP280;51223;51.816;5.862;2022-08-03T06:31:04;101505.25;;;27.04
64790;BMP280;51223;51.816;5.862;2022-08-03T06:33:48;101516.91;;;27.66
64790;BMP280;51223;51.816;5.862;2022-08-03T06:36:16;101521.59;;;27.69
64790;BMP280;51223;51.816;5.862;2022-08-03T06:38:47;101519.34;;;27.08
64790;BMP280;51223;51.816;5.862;2022-08-03T06:41:19;101519.16;;;27.00
64790;BMP280;51223;51.816;5.862;2022-08-03T06:43:50;101519.44;;;27.26
64790;BMP280;51223;51.816;5.862;2022-08-03T06:46:16;101526.97;;;26.75
64790;BMP280;51223;51.816;5.862;2022-08-03T06:48:45;101523.44;;;26.88
64790;BMP280;51223;51.816;5.862;2022-08-03T06:51:26;101525.41;;;27.53
64790;BMP280;51223;51.816;5.862;2022-08-03T06:53:55;101519.59;;;27.82
64790;BMP280;51223;51.816;5.862;2022-08-03T06:56:21;101520.63;;;26.42
64790;BMP280;51223;51.816;5.862;2022-08-03T06:58:58;101532.00;;;27.53
64790;BMP280;51223;51.816;5.862;2022-08-03T07:01:24;101522.13;;;27.43
64790;BMP280;51223;51.816;5.862;2022-08-03T07:03:50;101518.59;;;27.99
64790;BMP280;51223;51.816;5.862;2022-08-03T07:06:16;101527.47;;;27.33
64790;BMP280;51223;51.816;5.862;2022-08-03T07:08:44;101528.44;;;27.66
64790;BMP280;51223;51.816;5.862;2022-08-03T07:11:10;101523.84;;;28.51
64790;BMP280;51223;51.816;5.862;2022-08-03T07:13:38;101526.28;;;27.91
64790;BMP280;51223;51.816;5.862;2022-08-03T07:16:08;101522.66;;;27.66
64790;BMP280;51223;51.816;5.862;2022-08-03T07:18:49;101525.13;;;27.99
64790;BMP280;51223;51.816;5.862;2022-08-03T07:21:17;101523.75;;;27.63
64790;BMP280;51223;51.816;5.862;2022-08-03T07:23:43;101528.09;;;28.12
64790;BMP280;51223;51.816;5.862;2022-08-03T07:26:31;101535.97;;;28.30
64790;BMP280;51223;51.816;5.862;2022-08-03T07:29:28;101539.03;;;28.70
64790;BMP280;51223;51.816;5.862;2022-08-03T07:32:35;101524.31;;;27.61
64790;BMP280;51223;51.816;5.862;2022-08-03T07:35:08;101530.16;;;28.68
64790;BMP280;51223;51.816;5.862;2022-08-03T07:37:34;101539.63;;;27.94
64790;BMP280;51223;51.816;5.862;2022-08-03T07:40:00;101534.34;;;28.67
64790;BMP280;51223;51.816;5.862;2022-08-03T07:42:27;101527.72;;;29.43
64790;BMP280;51223;51.816;5.862;2022-08-03T07:44:53;101540.00;;;28.59
64790;BMP280;51223;51.816;5.862;2022-08-03T07:47:34;101528.38;;;27.90
64790;BMP280;51223;51.816;5.862;2022-08-03T07:50:09;101529.63;;;29.40
64790;BMP280;51223;51.816;5.862;2022-08-03T07:52:35;101523.94;;;29.48
64790;BMP280;51223;51.816;5.862;2022-08-03T07:55:25;101523.34;;;28.97
64790;BMP280;51223;51.816;5.862;2022-08-03T08:00:37;101530.06;;;29.31
64790;BMP280;51223;51.816;5.862;2022-08-03T08:03:23;101523.34;;;29.89
64790;BMP280;51223;51.816;5.862;2022-08-03T08:05:53;101515.97;;;29.41
64790;BMP280;51223;51.816;5.862;2022-08-03T08:08:38;101519.38;;;29.39
64790;BMP280;51223;51.816;5.862;2022-08-03T08:11:19;101525.63;;;29.43
64790;BMP280;51223;51.816;5.862;2022-08-03T08:14:01;101522.63;;;29.49
64790;BMP280;51223;51.816;5.862;2022-08-03T08:16:46;101537.41;;;29.46
64790;BMP280;51223;51.816;5.862;2022-08-03T08:19:15;101532.50;;;30.27
64790;BMP280;51223;51.816;5.862;2022-08-03T08:21:43;101528.78;;;28.87
64790;BMP280;51223;51.816;5.862;2022-08-03T08:24:18;101514.97;;;28.80
64790;BMP280;51223;51.816;5.862;2022-08-03T08:26:53;101522.50;;;29.94
64790;BMP280;51223;51.816;5.862;2022-08-03T08:29:27;101519.47;;;30.33
64790;BMP280;51223;51.816;5.862;2022-08-03T08:31:58;101529.00;;;30.28
64790;BMP280;51223;51.816;5.862;2022-08-03T08:34:50;101530.19;;;30.46
64790;BMP280;51223;51.816;5.862;2022-08-03T08:37:16;101520.50;;;30.85
64790;BMP280;51223;51.816;5.862;2022-08-03T08:39:57;101535.53;;;30.76
64790;BMP280;51223;51.816;5.862;2022-08-03T08:42:31;101520.22;;;31.24
64790;BMP280;51223;51.816;5.862;2022-08-03T08:45:13;101525.81;;;31.22
64790;BMP280;51223;51.816;5.862;2022-08-03T08:47:43;101528.84;;;30.47
64790;BMP280;51223;51.816;5.862;2022-08-03T08:50:10;101521.78;;;31.25
64790;BMP280;51223;51.816;5.862;2022-08-03T08:52:39;101517.09;;;30.94
64790;BMP280;51223;51.816;5.862;2022-08-03T08:55:07;101517.56;;;31.70
64790;BMP280;51223;51.816;5.862;2022-08-03T08:57:41;101532.00;;;31.54
64790;BMP280;51223;51.816;5.862;2022-08-03T09:00:10;101518.47;;;31.93
64790;BMP280;51223;51.816;5.862;2022-08-03T09:02:39;101511.06;;;31.84
64790;BMP280;51223;51.816;5.862;2022-08-03T09:05:32;101524.03;;;31.12
64790;BMP280;51223;51.816;5.862;2022-08-03T09:08:11;101518.34;;;30.78
64790;BMP280;51223;51.816;5.862;2022-08-03T09:10:37;101528.59;;;31.35
64790;BMP280;51223;51.816;5.862;2022-08-03T09:13:03;101523.44;;;31.49
64790;BMP280;51223;51.816;5.862;2022-08-03T09:15:30;101525.69;;;31.63
64790;BMP280;51223;51.816;5.862;2022-08-03T09:17:58;101534.44;;;31.79
64790;BMP280;51223;51.816;5.862;2022-08-03T09:20:28;101521.69;;;31.82
64790;BMP280;51223;51.816;5.862;2022-08-03T09:23:06;101521.25;;;30.78
64790;BMP280;51223;51.816;5.862;2022-08-03T09:25:37;101522.31;;;31.95
64790;BMP280;51223;51.816;5.862;2022-08-03T09:28:04;101534.63;;;31.81
64790;BMP280;51223;51.816;5.862;2022-08-03T09:30:31;101517.69;;;31.92
64790;BMP280;51223;51.816;5.862;2022-08-03T09:33:00;101533.34;;;31.97
64790;BMP280;51223;51.816;5.862;2022-08-03T09:35:27;101525.13;;;31.80
64790;BMP280;51223;51.816;5.862;2022-08-03T09:40:35;101519.63;;;32.05
64790;BMP280;51223;51.816;5.862;2022-08-03T09:43:04;101524.16;;;32.51
64790;BMP280;51223;51.816;5.862;2022-08-03T09:45:36;101523.78;;;32.47
64790;BMP280;51223;51.816;5.862;2022-08-03T09:48:30;101519.34;;;32.46
64790;BMP280;51223;51.816;5.862;2022-08-03T09:51:03;101525.34;;;32.41
64790;BMP280;51223;51.816;5.862;2022-08-03T09:53:29;101514.09;;;32.83
64790;BMP280;51223;51.816;5.862;2022-08-03T09:55:58;101518.72;;;33.01
64790;BMP280;51223;51.816;5.862;2022-08-03T09:58:25;101529.00;;;33.09
64790;BMP280;51223;51.816;5.862;2022-08-03T10:03:25;101528.06;;;31.44
64790;BMP280;51223;51.816;5.862;2022-08-03T10:05:52;101520.47;;;32.96
64790;BMP280;51223;51.816;5.862;2022-08-03T10:08:19;101514.81;;;33.21
64790;BMP280;51223;51.816;5.862;2022-08-03T10:10:47;101528.59;;;33.05
64790;BMP280;51223;51.816;5.862;2022-08-03T10:13:15;101529.28;;;33.36
64790;BMP280;51223;51.816;5.862;2022-08-03T10:15:41;101522.38;;;33.24
64790;BMP280;51223;51.816;5.862;2022-08-03T10:18:07;101509.75;;;33.29
64790;BMP280;51223;51.816;5.862;2022-08-03T10:20:40;101514.19;;;33.77
64790;BMP280;51223;51.816;5.862;2022-08-03T10:23:08;101523.59;;;31.79
64790;BMP280;51223;51.816;5.862;2022-08-03T10:25:36;101515.09;;;33.55
64790;BMP280;51223;51.816;5.862;2022-08-03T10:28:03;101511.97;;;33.46
64790;BMP280;51223;51.816;5.862;2022-08-03T10:30:31;101513.75;;;33.88
64790;BMP280;51223;51.816;5.862;2022-08-03T10:33:05;101507.91;;;33.88
64790;BMP280;51223;51.816;5.862;2022-08-03T10:35:36;101516.91;;;33.75
64790;BMP280;51223;51.816;5.862;2022-08-03T10:38:11;101505.16;;;34.23
64790;BMP280;51223;51.816;5.862;2022-08-03T10:40:39;101508.41;;;34.51
64790;BMP280;51223;51.816;5.862;2022-08-03T10:43:17;101508.94;;;33.83
64790;BMP280;51223;51.816;5.862;2022-08-03T10:45:44;101506.91;;;33.61
64790;BMP280;51223;51.816;5.862;2022-08-03T10:48:11;101498.81;;;33.52
64790;BMP280;51223;51.816;5.862;2022-08-03T10:50:37;101511.38;;;33.94
64790;BMP280;51223;51.816;5.862;2022-08-03T10:53:05;101507.34;;;33.50
64790;BMP280;51223;51.816;5.862;2022-08-03T10:55:39;101492.91;;;33.67
64790;BMP280;51223;51.816;5.862;2022-08-03T11:01:09;101485.13;;;34.02
64790;BMP280;51223;51.816;5.862;2022-08-03T11:06:24;101485.75;;;34.01
64790;BMP280;51223;51.816;5.862;2022-08-03T11:09:16;101482.19;;;33.77
64790;BMP280;51223;51.816;5.862;2022-08-03T11:11:44;101476.16;;;32.81
64790;BMP280;51223;51.816;5.862;2022-08-03T11:14:17;101471.09;;;32.81
64790;BMP280;51223;51.816;5.862;2022-08-03T11:16:46;101470.31;;;33.51
64790;BMP280;51223;51.816;5.862;2022-08-03T11:19:17;101478.88;;;33.81
64790;BMP280;51223;51.816;5.862;2022-08-03T11:32:49;101462.81;;;34.29
64790;BMP280;51223;51.816;5.862;2022-08-03T11:40:49;101472.03;;;33.54
64790;BMP280;51223;51.816;5.862;2022-08-03T11:46:05;101474.34;;;34.61
64790;BMP280;51223;51.816;5.862;2022-08-03T11:48:38;101476.94;;;34.08
64790;BMP280;51223;51.816;5.862;2022-08-03T11:51:06;101474.03;;;33.36
64790;BMP280;51223;51.816;5.862;2022-08-03T11:53:32;101468.16;;;33.51
64790;BMP280;51223;51.816;5.862;2022-08-03T11:56:00;101470.53;;;33.45
64790;BMP280;51223;51.816;5.862;2022-08-03T11:58:28;101474.84;;;34.26
64790;BMP280;51223;51.816;5.862;2022-08-03T12:01:06;101480.97;;;34.96
64790;BMP280;51223;51.816;5.862;2022-08-03T12:03:33;101487.44;;;35.12
64790;BMP280;51223;51.816;5.862;2022-08-03T12:05:59;101483.66;;;35.46
64790;BMP280;51223;51.816;5.862;2022-08-03T12:08:31;101474.81;;;35.80
64790;BMP280;51223;51.816;5.862;2022-08-03T12:10:58;101476.28;;;35.71
64790;BMP280;51223;51.816;5.862;2022-08-03T12:16:04;101490.63;;;34.65
64790;BMP280;51223;51.816;5.862;2022-08-03T12:18:30;101471.34;;;35.20
64790;BMP280;51223;51.816;5.862;2022-08-03T12:21:08;101476.84;;;35.34
64790;BMP280;51223;51.816;5.862;2022-08-03T12:23:35;101476.81;;;35.77
64790;BMP280;51223;51.816;5.862;2022-08-03T12:26:09;101479.75;;;35.87
64790;BMP280;51223;51.816;5.862;2022-08-03T12:28:36;101480.34;;;36.22
64790;BMP280;51223;51.816;5.862;2022-08-03T12:31:05;101487.53;;;34.63
64790;BMP280;51223;51.816;5.862;2022-08-03T12:33:56;101483.44;;;35.51
64790;BMP280;51223;51.816;5.862;2022-08-03T12:36:22;101476.19;;;34.32
64790;BMP280;51223;51.816;5.862;2022-08-03T12:38:59;101482.28;;;34.44
64790;BMP280;51223;51.816;5.862;2022-08-03T12:41:34;101482.03;;;34.00
64790;BMP280;51223;51.816;5.862;2022-08-03T12:44:04;101483.34;;;34.56
64790;BMP280;51223;51.816;5.862;2022-08-03T12:46:38;101468.28;;;35.45
64790;BMP280;51223;51.816;5.862;2022-08-03T12:54:15;101474.25;;;36.27
64790;BMP280;51223;51.816;5.862;2022-08-03T12:57:00;101470.25;;;36.42
64790;BMP280;51223;51.816;5.862;2022-08-03T12:59:34;101468.81;;;36.14
64790;BMP280;51223;51.816;5.862;2022-08-03T13:02:01;101474.81;;;35.09
64790;BMP280;51223;51.816;5.862;2022-08-03T13:04:29;101470.00;;;35.04
64790;BMP280;51223;51.816;5.862;2022-08-03T13:07:00;101469.84;;;35.19
64790;BMP280;51223;51.816;5.862;2022-08-03T13:09:27;101475.28;;;35.33
64790;BMP280;51223;51.816;5.862;2022-08-03T13:12:19;101464.13;;;35.39
64790;BMP280;51223;51.816;5.862;2022-08-03T13:14:49;101463.91;;;36.26
64790;BMP280;51223;51.816;5.862;2022-08-03T13:17:16;101456.25;;;36.31
64790;BMP280;51223;51.816;5.862;2022-08-03T13:19:44;101459.66;;;36.56
64790;BMP280;51223;51.816;5.862;2022-08-03T13:22:18;101465.66;;;35.40
64790;BMP280;51223;51.816;5.862;2022-08-03T13:24:46;101465.81;;;35.95
64790;BMP280;51223;51.816;5.862;2022-08-03T13:27:13;101463.50;;;34.79
64790;BMP280;51223;51.816;5.862;2022-08-03T13:29:39;101452.53;;;34.87
64790;BMP280;51223;51.816;5.862;2022-08-03T13:32:05;101447.81;;;35.36
64790;BMP280;51223;51.816;5.862;2022-08-03T13:34:31;101466.44;;;35.67
64790;BMP280;51223;51.816;5.862;2022-08-03T13:36:57;101451.22;;;36.98
64790;BMP280;51223;51.816;5.862;2022-08-03T13:39:23;101450.16;;;36.84
64790;BMP280;51223;51.816;5.862;2022-08-03T13:41:49;101459.69;;;36.01
64790;BMP280;51223;51.816;5.862;2022-08-03T13:44:18;101458.16;;;36.65
64790;BMP280;51223;51.816;5.862;2022-08-03T13:46:45;101454.94;;;37.18
64790;BMP280;51223;51.816;5.862;2022-08-03T13:49:11;101457.41;;;37.02
64790;BMP280;51223;51.816;5.862;2022-08-03T13:51:37;101458.00;;;37.01
64790;BMP280;51223;51.816;5.862;2022-08-03T13:54:06;101450.44;;;36.98
64790;BMP280;51223;51.816;5.862;2022-08-03T13:56:32;101452.63;;;36.69
64790;BMP280;51223;51.816;5.862;2022-08-03T13:58:58;101453.66;;;36.54
64790;BMP280;51223;51.816;5.862;2022-08-03T14:01:24;101455.09;;;36.07
64790;BMP280;51223;51.816;5.862;2022-08-03T14:03:51;101446.91;;;36.32
64790;BMP280;51223;51.816;5.862;2022-08-03T14:06:23;101447.06;;;37.30
64790;BMP280;51223;51.816;5.862;2022-08-03T14:08:50;101448.75;;;36.66
64790;BMP280;51223;51.816;5.862;2022-08-03T14:11:16;101444.94;;;37.11
64790;BMP280;51223;51.816;5.862;2022-08-03T14:13:43;101453.69;;;36.64
64790;BMP280;51223;51.816;5.862;2022-08-03T14:16:11;101449.88;;;37.09
64790;BMP280;51223;51.816;5.862;2022-08-03T14:18:38;101444.41;;;37.34
64790;BMP280;51223;51.816;5.862;2022-08-03T14:21:04;101449.25;;;35.71
64790;BMP280;51223;51.816;5.862;2022-08-03T14:23:33;101445.94;;;37.35
64790;BMP280;51223;51.816;5.862;2022-08-03T14:26:00;101443.53;;;37.12
64790;BMP280;51223;51.816;5.862;2022-08-03T14:28:25;101437.09;;;37.14
64790;BMP280;51223;51.816;5.862;2022-08-03T14:30:52;101432.91;;;36.98
64790;BMP280;51223;51.816;5.862;2022-08-03T14:33:19;101431.84;;;36.65
64790;BMP280;51223;51.816;5.862;2022-08-03T14:35:47;101423.59;;;37.40
64790;BMP280;51223;51.816;5.862;2022-08-03T14:38:14;101424.81;;;37.87
64790;BMP280;51223;51.816;5.862;2022-08-03T14:40:40;101414.59;;;37.66
64790;BMP280;51223;51.816;5.862;2022-08-03T14:43:06;101412.22;;;37.34
64790;BMP280;51223;51.816;5.862;2022-08-03T14:45:31;101425.91;;;36.07
64790;BMP280;51223;51.816;5.862;2022-08-03T14:48:01;101415.34;;;37.98
64790;BMP280;51223;51.816;5.862;2022-08-03T14:50:28;101411.94;;;37.30
64790;BMP280;51223;51.816;5.862;2022-08-03T14:52:54;101415.78;;;37.73
64790;BMP280;51223;51.816;5.862;2022-08-03T14:55:20;101405.22;;;38.10
64790;BMP280;51223;51.816;5.862;2022-08-03T14:57:46;101409.31;;;37.25
64790;BMP280;51223;51.816;5.862;2022-08-03T15:00:15;101401.66;;;37.00
64790;BMP280;51223;51.816;5.862;2022-08-03T15:02:40;101400.00;;;37.07
64790;BMP280;51223;51.816;5.862;2022-08-03T15:05:06;101402.41;;;37.60
64790;BMP280;51223;51.816;5.862;2022-08-03T15:07:33;101392.31;;;38.25
64790;BMP280;51223;51.816;5.862;2022-08-03T15:09:59;101391.03;;;38.70
64790;BMP280;51223;51.816;5.862;2022-08-03T15:12:25;101387.16;;;37.22
64790;BMP280;51223;51.816;5.862;2022-08-03T15:14:50;101378.50;;;36.74
64790;BMP280;51223;51.816;5.862;2022-08-03T15:17:16;101385.50;;;38.11
64790;BMP280;51223;51.816;5.862;2022-08-03T15:19:42;101387.03;;;37.91
64790;BMP280;51223;51.816;5.862;2022-08-03T15:22:08;101391.34;;;37.19
64790;BMP280;51223;51.816;5.862;2022-08-03T15:24:34;101384.88;;;36.15
64790;BMP280;51223;51.816;5.862;2022-08-03T15:27:00;101390.91;;;36.26
64790;BMP280;51223;51.816;5.862;2022-08-03T15:29:25;101380.41;;;37.09
64790;BMP280;51223;51.816;5.862;2022-08-03T15:31:51;101383.84;;;36.77
64790;BMP280;51223;51.816;5.862;2022-08-03T15:34:17;101388.44;;;35.41
64790;BMP280;51223;51.816;5.862;2022-08-03T15:36:43;101375.78;;;37.56
64790;BMP280;51223;51.816;5.862;2022-08-03T15:39:09;101372.41;;;38.66
64790;BMP280;51223;51.816;5.862;2022-08-03T15:41:35;101382.88;;;37.03
64790;BMP280;51223;51.816;5.862;2022-08-03T15:44:01;101390.16;;;37.73
64790;BMP280;51223;51.816;5.862;2022-08-03T15:46:30;101383.66;;;37.13
64790;BMP280;51223;51.816;5.862;2022-08-03T15:48:55;101378.31;;;36.91
64790;BMP280;51223;51.816;5.862;2022-08-03T15:51:21;101383.34;;;38.11
64790;BMP280;51223;51.816;5.862;2022-08-03T15:53:48;101372.38;;;38.12
64790;BMP280;51223;51.816;5.862;2022-08-03T15:56:14;101377.09;;;36.27
64790;BMP280;51223;51.816;5.862;2022-08-03T15:58:39;101374.47;;;37.38
64790;BMP280;51223;51.816;5.862;2022-08-03T16:01:08;101366.72;;;38.46
64790;BMP280;51223;51.816;5.862;2022-08-03T16:03:35;101377.56;;;36.52
64790;BMP280;51223;51.816;5.862;2022-08-03T16:06:03;101365.81;;;38.02
64790;BMP280;51223;51.816;5.862;2022-08-03T16:08:29;101369.25;;;37.67
64790;BMP280;51223;51.816;5.862;2022-08-03T16:10:56;101365.69;;;37.69
64790;BMP280;51223;51.816;5.862;2022-08-03T16:13:21;101367.06;;;38.20
64790;BMP280;51223;51.816;5.862;2022-08-03T16:15:48;101366.78;;;36.74
64790;BMP280;51223;51.816;5.862;2022-08-03T16:18:16;101364.59;;;37.53
64790;BMP280;51223;51.816;5.862;2022-08-03T16:20:45;101366.06;;;38.48